Time;durP1;ratioP1;P1;durP2;ratioP2;P2;SDS_P1;SDS_P2;PMS_P1;PMS_P2;Temp;Humidity;BMP_temperature;BMP_pressure;BME280_temperature;BME280_humidity;BME280_pressure;Samples;Min_cycle;Max_cycle;Signal;HPM_P1;HPM_P2
2023/01/23 00:02:10;;;;;;;;;;;1.80;99.90;;;;;;5078473;28;20235;-56
2023/01/23 00:04:37;;;;;;;;;;;1.90;99.90;;;;;;5078617;28;20204;-56
2023/01/23 00:07:04;;;;;;;;;;;1.90;99.90;;;;;;5078041;28;20368;-56
2023/01/23 00:09:31;;;;;;;;;;;2.00;99.90;;;;;;5078317;28;20329;-56
2023/01/23 00:11:58;;;;;;;;;;;2.00;99.90;;;;;;5078332;28;19978;-56
2023/01/23 00:14:25;;;;;;;;;;;2.10;99.90;;;;;;5078679;28;20054;-54
2023/01/23 00:16:52;;;;;;;;;;;2.10;99.90;;;;;;5078356;28;19920;-55
2023/01/23 00:19:20;;;;;;;;;;;2.10;99.90;;;;;;5077590;28;19924;-54
2023/01/23 00:21:47;;;;;;;;;;;2.20;99.90;;;;;;5076703;28;20211;-58
2023/01/23 00:24:14;;;;;;;;;;;2.10;99.90;;;;;;5077063;28;19920;-56
2023/01/23 00:26:41;;;;;;;;;;;2.20;99.90;;;;;;5076686;28;20034;-54
2023/01/23 00:29:08;;;;;;;;;;;2.20;99.90;;;;;;5076680;28;20003;-55
2023/01/23 00:31:36;;;;;;;;;;;2.20;99.90;;;;;;5076987;28;19921;-56
2023/01/23 00:34:03;;;;;;;;;;;2.20;99.90;;;;;;5076513;28;19926;-56
2023/01/23 00:36:32;;;;;;;;;;;2.30;99.90;;;;;;5076424;28;20213;-56
2023/01/23 00:39:00;;;;;;;;;;;2.30;99.90;;;;;;5076367;28;20011;-57
2023/01/23 00:41:27;;;;;;;;;;;2.40;99.90;;;;;;5076847;28;20289;-55
2023/01/23 00:43:53;;;;;;;;;;;2.20;99.90;;;;;;5076831;28;19920;-56
2023/01/23 00:46:21;;;;;;;;;;;2.10;99.90;;;;;;5076950;28;19985;-56
2023/01/23 00:48:48;;;;;;;;;;;2.10;99.90;;;;;;5077665;28;20003;-56
2023/01/23 00:51:15;;;;;;;;;;;2.00;99.90;;;;;;5077275;28;20015;-57
2023/01/23 00:53:43;;;;;;;;;;;1.90;99.90;;;;;;5077604;28;20285;-59
2023/01/23 00:56:10;;;;;;;;;;;1.80;99.90;;;;;;5077417;28;20006;-57
2023/01/23 00:58:39;;;;;;;;;;;1.70;99.90;;;;;;5076870;28;19962;-57
2023/01/23 01:01:06;;;;;;;;;;;1.70;99.90;;;;;;5077881;28;19962;-56
2023/01/23 01:03:33;;;;;;;;;;;1.70;99.90;;;;;;5077376;28;20010;-56
2023/01/23 01:06:00;;;;;;;;;;;1.90;99.90;;;;;;5077345;28;20266;-55
2023/01/23 01:08:27;;;;;;;;;;;1.90;99.90;;;;;;5077528;28;19924;-57
2023/01/23 01:10:56;;;;;;;;;;;1.80;99.90;;;;;;5077228;28;19926;-55
2023/01/23 01:13:23;;;;;;;;;;;1.60;99.90;;;;;;5077439;28;20221;-57
2023/01/23 01:15:51;;;;;;;;;;;1.80;99.90;;;;;;5076719;28;19957;-57
2023/01/23 01:18:19;;;;;;;;;;;1.90;99.90;;;;;;5076979;28;20018;-57
2023/01/23 01:20:46;;;;;;;;;;;2.00;99.90;;;;;;5075042;28;19926;-53
2023/01/23 01:23:13;;;;;;;;;;;1.90;99.90;;;;;;5077553;28;20316;-58
2023/01/23 01:25:40;;;;;;;;;;;1.80;99.90;;;;;;5076414;28;19925;-56
2023/01/23 01:28:09;;;;;;;;;;;1.80;99.90;;;;;;5077177;28;20028;-57
2023/01/23 01:30:36;;;;;;;;;;;1.90;99.90;;;;;;5075255;28;20003;-58
2023/01/23 01:33:03;;;;;;;;;;;2.00;99.90;;;;;;5076839;28;19920;-57
2023/01/23 01:35:30;;;;;;;;;;;2.00;99.90;;;;;;5076377;28;19971;-57
2023/01/23 01:37:57;;;;;;;;;;;1.80;99.90;;;;;;5077378;28;19920;-57
2023/01/23 01:40:34;;;;;;;;;;;2.00;99.90;;;;;;5076719;28;20031;-57
2023/01/23 01:43:02;;;;;;;;;;;2.00;99.90;;;;;;5076583;28;20312;-57
2023/01/23 01:45:48;;;;;;;;;;;1.90;99.90;;;;;;5076502;28;20017;-57
2023/01/23 01:48:17;;;;;;;;;;;2.00;99.90;;;;;;5076711;28;20027;-56
2023/01/23 01:50:44;;;;;;;;;;;2.00;99.90;;;;;;5076020;28;20308;-62
2023/01/23 01:53:11;;;;;;;;;;;1.90;99.90;;;;;;5076326;28;20010;-55
2023/01/23 01:55:39;;;;;;;;;;;1.80;99.90;;;;;;5076493;28;20019;-57
2023/01/23 01:58:06;;;;;;;;;;;1.80;99.90;;;;;;5076313;28;20288;-57
2023/01/23 02:00:33;;;;;;;;;;;1.70;99.90;;;;;;5076630;28;20395;-57
2023/01/23 02:03:02;;;;;;;;;;;1.70;99.90;;;;;;5076375;28;20278;-55
2023/01/23 02:05:33;;;;;;;;;;;1.90;99.90;;;;;;5076231;28;20011;-57
2023/01/23 02:08:02;;;;;;;;;;;2.00;99.90;;;;;;5076133;28;20035;-57
2023/01/23 02:10:31;;;;;;;;;;;2.20;99.90;;;;;;5076054;28;19920;-57
2023/01/23 02:13:12;;;;;;;;;;;2.30;99.90;;;;;;5076813;28;19921;-56
2023/01/23 02:15:40;;;;;;;;;;;2.30;99.90;;;;;;5075085;28;19921;-57
2023/01/23 02:18:07;;;;;;;;;;;2.00;99.90;;;;;;5076739;28;20015;-57
2023/01/23 02:20:35;;;;;;;;;;;1.80;99.90;;;;;;5073588;28;20011;-57
2023/01/23 02:23:05;;;;;;;;;;;1.80;99.90;;;;;;5076210;28;19924;-58
2023/01/23 02:25:36;;;;;;;;;;;1.80;99.90;;;;;;5076279;28;19927;-57
2023/01/23 02:28:04;;;;;;;;;;;1.90;99.90;;;;;;5076610;28;19927;-56
2023/01/23 02:30:31;;;;;;;;;;;2.10;99.90;;;;;;5073663;28;19924;-55
2023/01/23 02:33:07;;;;;;;;;;;2.20;99.90;;;;;;5075372;28;20282;-57
2023/01/23 02:35:35;;;;;;;;;;;2.00;99.90;;;;;;5075533;28;19924;-56
2023/01/23 02:38:04;;;;;;;;;;;1.90;99.90;;;;;;5074591;28;20006;-55
2023/01/23 02:40:32;;;;;;;;;;;1.90;99.90;;;;;;5075607;28;19935;-56
2023/01/23 02:42:59;;;;;;;;;;;1.90;99.90;;;;;;5078042;28;20026;-56
2023/01/23 02:45:27;;;;;;;;;;;1.80;99.90;;;;;;5079711;28;20015;-57
2023/01/23 02:47:54;;;;;;;;;;;2.00;99.90;;;;;;5078944;28;20006;-56
2023/01/23 02:50:21;;;;;;;;;;;2.00;99.90;;;;;;5079782;28;20422;-57
2023/01/23 02:52:49;;;;;;;;;;;2.00;99.90;;;;;;5079586;28;20007;-57
2023/01/23 02:55:17;;;;;;;;;;;1.90;99.90;;;;;;5080376;28;20360;-57
2023/01/23 02:57:44;;;;;;;;;;;1.90;99.90;;;;;;5080560;28;19920;-57
2023/01/23 03:00:19;;;;;;;;;;;1.90;99.90;;;;;;5080126;28;19932;-56
2023/01/23 03:02:48;;;;;;;;;;;1.80;99.90;;;;;;5080458;28;19916;-56
2023/01/23 03:05:15;;;;;;;;;;;1.90;99.90;;;;;;5079986;28;19920;-57
2023/01/23 03:07:42;;;;;;;;;;;1.90;99.90;;;;;;5079558;28;20219;-57
2023/01/23 03:10:10;;;;;;;;;;;2.00;99.90;;;;;;5079545;28;19920;-57
2023/01/23 03:12:41;;;;;;;;;;;1.90;99.90;;;;;;5079624;28;20011;-53
2023/01/23 03:15:08;;;;;;;;;;;1.80;99.90;;;;;;5079879;28;19920;-57
2023/01/23 03:17:36;;;;;;;;;;;1.80;99.90;;;;;;5079802;28;20051;-62
2023/01/23 03:20:05;;;;;;;;;;;1.80;99.90;;;;;;5079608;28;20511;-58
2023/01/23 03:22:32;;;;;;;;;;;1.80;99.90;;;;;;5079554;28;19974;-58
2023/01/23 03:25:00;;;;;;;;;;;1.80;99.90;;;;;;5079522;28;20312;-58
2023/01/23 03:27:27;;;;;;;;;;;2.00;99.90;;;;;;5079288;28;20012;-57
2023/01/23 03:32:38;;;;;;;;;;;2.10;99.90;;;;;;5078873;28;20021;-58
2023/01/23 03:35:08;;;;;;;;;;;2.00;99.90;;;;;;5078815;28;20308;-59
2023/01/23 03:37:35;;;;;;;;;;;2.00;99.90;;;;;;5079030;28;20308;-58
2023/01/23 03:42:46;;;;;;;;;;;2.20;99.90;;;;;;5079284;28;19923;-58
2023/01/23 03:45:13;;;;;;;;;;;2.10;99.90;;;;;;5078471;28;20011;-58
2023/01/23 03:47:40;;;;;;;;;;;1.90;99.90;;;;;;5079363;28;20011;-58
2023/01/23 03:50:10;;;;;;;;;;;1.70;99.90;;;;;;5079218;28;20276;-58
2023/01/23 03:52:37;;;;;;;;;;;1.90;99.90;;;;;;5078857;28;19959;-58
2023/01/23 03:55:05;;;;;;;;;;;2.10;99.90;;;;;;5077055;28;19927;-58
2023/01/23 03:57:32;;;;;;;;;;;2.20;99.90;;;;;;5078796;28;19924;-58
2023/01/23 03:59:58;;;;;;;;;;;2.10;99.90;;;;;;5078553;28;20020;-58
2023/01/23 04:02:25;;;;;;;;;;;2.00;99.90;;;;;;5079120;28;20284;-57
2023/01/23 04:04:52;;;;;;;;;;;1.90;99.90;;;;;;5078054;28;19932;-58
2023/01/23 04:07:21;;;;;;;;;;;2.00;99.90;;;;;;5077909;28;20011;-58
2023/01/23 04:09:47;;;;;;;;;;;1.90;99.90;;;;;;5077372;28;19920;-58
2023/01/23 04:12:14;;;;;;;;;;;1.80;99.90;;;;;;5078364;28;19920;-57
2023/01/23 04:14:41;;;;;;;;;;;1.60;99.90;;;;;;5077054;28;20015;-58
2023/01/23 04:17:08;;;;;;;;;;;1.60;99.90;;;;;;5077475;28;19959;-57
2023/01/23 04:19:35;;;;;;;;;;;1.60;99.90;;;;;;5078081;28;19971;-58
2023/01/23 04:22:04;;;;;;;;;;;1.70;99.90;;;;;;5078539;28;20507;-58
2023/01/23 04:24:33;;;;;;;;;;;1.80;99.90;;;;;;5078968;28;19987;-58
2023/01/23 04:27:00;;;;;;;;;;;1.80;99.90;;;;;;5079119;28;19920;-58
2023/01/23 04:29:26;;;;;;;;;;;1.70;99.90;;;;;;5078267;28;19952;-58
2023/01/23 04:31:53;;;;;;;;;;;1.60;99.90;;;;;;5078657;28;20279;-57
2023/01/23 04:34:20;;;;;;;;;;;1.60;99.90;;;;;;5078228;28;20011;-58
2023/01/23 04:36:47;;;;;;;;;;;1.60;99.90;;;;;;5077758;28;19926;-57
2023/01/23 04:39:14;;;;;;;;;;;1.60;99.90;;;;;;5078039;28;20019;-58
2023/01/23 04:41:42;;;;;;;;;;;1.70;99.90;;;;;;5078586;28;20011;-58
2023/01/23 04:46:53;;;;;;;;;;;1.80;99.90;;;;;;5077624;28;20010;-58
2023/01/23 04:49:21;;;;;;;;;;;1.90;99.90;;;;;;5078384;28;19963;-58
2023/01/23 04:51:48;;;;;;;;;;;2.00;99.90;;;;;;5077996;28;20401;-57
2023/01/23 04:54:16;;;;;;;;;;;2.10;99.90;;;;;;5077073;28;20331;-56
2023/01/23 04:56:44;;;;;;;;;;;2.20;99.90;;;;;;5077999;28;19920;-57
2023/01/23 04:59:11;;;;;;;;;;;2.10;99.90;;;;;;5077865;28;19920;-57
2023/01/23 05:01:38;;;;;;;;;;;1.90;99.90;;;;;;5078244;28;20015;-58
2023/01/23 05:04:05;;;;;;;;;;;1.90;99.90;;;;;;5076772;28;20027;-59
2023/01/23 05:06:32;;;;;;;;;;;1.80;99.90;;;;;;5076210;28;19967;-56
2023/01/23 05:08:59;;;;;;;;;;;1.80;99.90;;;;;;5076453;28;19924;-56
2023/01/23 05:11:26;;;;;;;;;;;1.70;99.90;;;;;;5077417;28;20283;-58
2023/01/23 05:13:54;;;;;;;;;;;1.80;99.90;;;;;;5077323;28;19924;-58
2023/01/23 05:16:21;;;;;;;;;;;2.00;99.90;;;;;;5077666;28;20011;-56
2023/01/23 05:18:48;;;;;;;;;;;2.10;99.90;;;;;;5077319;28;19927;-58
2023/01/23 05:21:15;;;;;;;;;;;2.20;99.90;;;;;;5076388;28;20395;-56
2023/01/23 05:23:42;;;;;;;;;;;2.20;99.90;;;;;;5075529;28;20014;-58
2023/01/23 05:26:09;;;;;;;;;;;2.20;99.90;;;;;;5076412;28;20007;-57
2023/01/23 05:28:36;;;;;;;;;;;2.10;99.90;;;;;;5077305;28;20302;-58
2023/01/23 05:31:04;;;;;;;;;;;2.10;99.90;;;;;;5077361;28;19927;-56
2023/01/23 05:33:31;;;;;;;;;;;1.90;99.90;;;;;;5077068;28;19928;-58
2023/01/23 05:35:59;;;;;;;;;;;1.80;99.90;;;;;;5075616;28;20019;-58
2023/01/23 05:38:26;;;;;;;;;;;1.80;99.90;;;;;;5076730;28;19951;-59
2023/01/23 05:40:53;;;;;;;;;;;1.70;99.90;;;;;;5076837;28;20015;-59
2023/01/23 05:43:20;;;;;;;;;;;1.60;99.90;;;;;;5076346;28;19928;-58
2023/01/23 05:45:47;;;;;;;;;;;1.70;99.90;;;;;;5075933;28;20301;-57
2023/01/23 05:48:15;;;;;;;;;;;1.80;99.90;;;;;;5076786;28;20343;-58
2023/01/23 05:50:42;;;;;;;;;;;1.80;99.90;;;;;;5076633;28;20007;-58
2023/01/23 05:53:09;;;;;;;;;;;1.80;99.90;;;;;;5076953;28;19920;-58
2023/01/23 05:55:37;;;;;;;;;;;2.00;99.90;;;;;;5076752;28;20069;-59
2023/01/23 05:58:04;;;;;;;;;;;2.10;99.90;;;;;;5076249;28;19920;-58
2023/01/23 06:00:31;;;;;;;;;;;2.10;99.90;;;;;;5074980;28;20027;-58
2023/01/23 06:02:58;;;;;;;;;;;2.10;99.90;;;;;;5072153;28;19928;-57
2023/01/23 06:05:27;;;;;;;;;;;2.10;99.90;;;;;;5072408;28;20307;-57
2023/01/23 06:07:54;;;;;;;;;;;2.20;99.90;;;;;;5073430;28;20007;-62
2023/01/23 06:10:21;;;;;;;;;;;2.30;99.90;;;;;;5073930;28;19981;-58
2023/01/23 06:12:47;;;;;;;;;;;2.40;99.90;;;;;;5073954;28;19925;-54
2023/01/23 06:15:14;;;;;;;;;;;2.40;99.90;;;;;;5073545;28;19955;-56
2023/01/23 06:17:41;;;;;;;;;;;2.40;99.90;;;;;;5073457;28;20322;-59
2023/01/23 06:20:11;;;;;;;;;;;2.50;99.90;;;;;;5074231;28;19920;-58
2023/01/23 06:22:39;;;;;;;;;;;2.40;99.90;;;;;;5073036;28;19921;-60
2023/01/23 06:25:06;;;;;;;;;;;2.30;99.90;;;;;;5074232;28;20304;-59
2023/01/23 06:27:33;;;;;;;;;;;2.20;99.90;;;;;;5072476;28;20304;-58
2023/01/23 06:30:00;;;;;;;;;;;2.20;99.90;;;;;;5072950;28;19920;-58
2023/01/23 06:32:27;;;;;;;;;;;2.10;99.90;;;;;;5074501;28;20367;-59
2023/01/23 06:34:54;;;;;;;;;;;2.10;99.90;;;;;;5073450;28;20015;-59
2023/01/23 06:37:21;;;;;;;;;;;2.20;99.90;;;;;;5075082;28;20023;-59
2023/01/23 06:39:49;;;;;;;;;;;2.30;99.90;;;;;;5075123;28;19920;-58
2023/01/23 06:42:16;;;;;;;;;;;2.30;99.90;;;;;;5073984;28;19921;-59
2023/01/23 06:44:43;;;;;;;;;;;2.10;99.90;;;;;;5074656;28;20015;-59
2023/01/23 06:47:10;;;;;;;;;;;2.10;99.90;;;;;;5076060;28;19924;-59
2023/01/23 06:49:37;;;;;;;;;;;2.20;99.90;;;;;;5074056;28;20312;-58
2023/01/23 06:52:04;;;;;;;;;;;2.10;99.90;;;;;;5074637;28;19924;-59
2023/01/23 06:54:31;;;;;;;;;;;2.20;99.90;;;;;;5072970;28;20399;-59
2023/01/23 06:56:59;;;;;;;;;;;2.20;99.90;;;;;;5070148;28;19926;-60
2023/01/23 06:59:26;;;;;;;;;;;2.20;99.90;;;;;;5067392;28;19928;-59
2023/01/23 07:01:53;;;;;;;;;;;2.10;99.90;;;;;;5067556;28;20379;-60
2023/01/23 07:04:20;;;;;;;;;;;2.40;99.90;;;;;;5074898;28;19947;-59
2023/01/23 07:06:47;;;;;;;;;;;2.40;99.90;;;;;;5071006;28;19973;-59
2023/01/23 07:09:14;;;;;;;;;;;2.40;99.90;;;;;;5072696;28;20015;-59
2023/01/23 07:11:43;;;;;;;;;;;2.30;99.90;;;;;;5071071;28;20019;-59
2023/01/23 07:14:12;;;;;;;;;;;2.30;99.90;;;;;;5071640;28;20046;-58
2023/01/23 07:16:39;;;;;;;;;;;2.10;99.90;;;;;;5062121;28;19928;-57
2023/01/23 07:19:06;;;;;;;;;;;2.20;99.90;;;;;;5052572;28;19959;-57
2023/01/23 07:21:33;;;;;;;;;;;2.10;99.90;;;;;;5061906;28;19998;-56
2023/01/23 07:24:00;;;;;;;;;;;2.10;99.90;;;;;;5074278;28;19924;-53
2023/01/23 07:26:27;;;;;;;;;;;2.10;99.90;;;;;;5071680;28;19927;-56
2023/01/23 07:28:55;;;;;;;;;;;2.20;99.90;;;;;;5075582;28;19920;-55
2023/01/23 07:31:23;;;;;;;;;;;2.20;99.90;;;;;;5077983;28;19936;-54
2023/01/23 07:33:50;;;;;;;;;;;2.30;99.90;;;;;;5077789;28;19927;-56
2023/01/23 07:36:18;;;;;;;;;;;2.30;99.90;;;;;;5074569;28;19935;-50
2023/01/23 07:38:45;;;;;;;;;;;2.40;99.90;;;;;;5077213;28;19928;-53
2023/01/23 07:41:12;;;;;;;;;;;2.40;99.90;;;;;;5061343;28;19928;-50
2023/01/23 07:43:39;;;;;;;;;;;2.60;99.90;;;;;;5057278;28;20220;-55
2023/01/23 07:46:06;;;;;;;;;;;2.70;99.90;;;;;;5058958;28;19921;-52
2023/01/23 07:48:36;;;;;;;;;;;2.70;99.90;;;;;;5057144;28;19927;-51
2023/01/23 07:51:03;;;;;;;;;;;2.70;99.90;;;;;;5057346;28;20228;-53
2023/01/23 07:53:30;;;;;;;;;;;2.50;99.90;;;;;;5055880;28;19929;-53
2023/01/23 07:55:57;;;;;;;;;;;2.50;99.90;;;;;;5055529;28;19999;-52
2023/01/23 07:58:24;;;;;;;;;;;2.80;99.90;;;;;;5056666;28;20020;-49
2023/01/23 08:00:51;;;;;;;;;;;3.00;99.90;;;;;;5073450;28;19974;-53
2023/01/23 08:03:19;;;;;;;;;;;2.90;99.90;;;;;;5075209;28;19958;-50
2023/01/23 08:05:49;;;;;;;;;;;2.80;99.90;;;;;;5075295;28;19931;-53
2023/01/23 08:08:16;;;;;;;;;;;2.60;99.90;;;;;;5072953;28;19921;-54
2023/01/23 08:10:43;;;;;;;;;;;2.60;99.90;;;;;;5076219;28;19920;-54
2023/01/23 08:13:10;;;;;;;;;;;2.70;99.90;;;;;;5070913;28;19927;-51
2023/01/23 08:15:37;;;;;;;;;;;2.60;99.90;;;;;;5054474;28;20016;-54
2023/01/23 08:18:04;;;;;;;;;;;2.90;99.90;;;;;;5055852;28;20023;-50
2023/01/23 08:20:31;;;;;;;;;;;2.90;99.90;;;;;;5064085;28;19970;-50
2023/01/23 08:23:01;;;;;;;;;;;3.00;99.90;;;;;;5060740;28;20002;-52
2023/01/23 08:25:28;;;;;;;;;;;3.20;99.90;;;;;;5071080;28;19921;-54
2023/01/23 08:27:55;;;;;;;;;;;3.40;99.90;;;;;;5073884;28;19927;-50
2023/01/23 08:30:22;;;;;;;;;;;3.40;99.90;;;;;;5068061;28;20091;-51
2023/01/23 08:32:49;;;;;;;;;;;3.30;99.90;;;;;;5060845;28;19928;-49
2023/01/23 08:35:16;;;;;;;;;;;3.10;99.90;;;;;;5061403;28;19920;-55
2023/01/23 08:37:43;;;;;;;;;;;3.10;99.90;;;;;;5061805;28;19951;-51
2023/01/23 08:40:12;;;;;;;;;;;3.00;99.90;;;;;;5057280;28;20336;-55
2023/01/23 08:42:39;;;;;;;;;;;3.00;99.90;;;;;;5075287;28;19951;-51
2023/01/23 08:45:06;;;;;;;;;;;3.00;99.90;;;;;;5071880;28;20409;-54
2023/01/23 08:47:35;;;;;;;;;;;2.90;99.90;;;;;;5069119;28;19920;-53
2023/01/23 08:50:02;;;;;;;;;;;3.20;99.90;;;;;;5065211;28;19920;-54
2023/01/23 08:52:29;;;;;;;;;;;3.00;99.90;;;;;;5068084;28;20282;-54
2023/01/23 08:54:56;;;;;;;;;;;3.10;99.90;;;;;;5057513;28;19928;-53
2023/01/23 08:57:25;;;;;;;;;;;3.30;99.90;;;;;;5067695;28;20272;-56
2023/01/23 08:59:52;;;;;;;;;;;3.40;99.90;;;;;;5069029;28;20314;-54
2023/01/23 09:02:20;;;;;;;;;;;3.40;99.90;;;;;;5064318;28;20009;-56
2023/01/23 09:04:47;;;;;;;;;;;3.30;99.90;;;;;;5067701;28;19920;-52
2023/01/23 09:07:14;;;;;;;;;;;3.10;99.90;;;;;;5065976;28;19921;-56
2023/01/23 09:09:41;;;;;;;;;;;3.00;99.90;;;;;;5065148;28;19975;-52
2023/01/23 09:12:08;;;;;;;;;;;3.00;99.90;;;;;;5063956;28;20587;-54
2023/01/23 09:14:37;;;;;;;;;;;3.10;99.90;;;;;;5065149;28;20299;-54
2023/01/23 09:17:04;;;;;;;;;;;3.10;99.90;;;;;;5072561;28;20043;-53
2023/01/23 09:19:31;;;;;;;;;;;3.00;99.90;;;;;;5069794;28;20374;-56
2023/01/23 09:21:58;;;;;;;;;;;3.10;99.90;;;;;;5061604;28;19947;-52
2023/01/23 09:24:25;;;;;;;;;;;3.10;99.90;;;;;;5072666;28;20364;-53
2023/01/23 09:26:52;;;;;;;;;;;3.10;99.90;;;;;;5057869;28;20018;-55
2023/01/23 09:29:19;;;;;;;;;;;3.00;99.90;;;;;;5065597;28;20000;-55
2023/01/23 09:31:47;;;;;;;;;;;3.00;99.90;;;;;;5067960;28;19921;-54
2023/01/23 09:34:14;;;;;;;;;;;2.80;99.90;;;;;;5070889;28;20393;-54
2023/01/23 09:36:41;;;;;;;;;;;2.90;99.90;;;;;;5054724;28;20439;-56
2023/01/23 09:39:08;;;;;;;;;;;3.00;99.90;;;;;;5056134;28;20015;-54
2023/01/23 09:41:35;;;;;;;;;;;3.00;99.90;;;;;;5066362;28;20374;-53
2023/01/23 09:44:06;;;;;;;;;;;3.10;99.90;;;;;;5071785;28;20254;-52
2023/01/23 09:46:35;;;;;;;;;;;3.00;99.90;;;;;;5072518;28;19951;-55
2023/01/23 09:49:06;;;;;;;;;;;3.00;99.90;;;;;;5072812;28;19924;-53
2023/01/23 09:51:41;;;;;;;;;;;2.90;99.90;;;;;;5063087;28;20019;-55
2023/01/23 09:54:14;;;;;;;;;;;2.70;99.90;;;;;;5058205;28;19924;-55
2023/01/23 09:56:43;;;;;;;;;;;2.80;99.90;;;;;;5069828;28;19995;-55
2023/01/23 09:59:13;;;;;;;;;;;2.80;99.90;;;;;;5069632;28;19920;-52
2023/01/23 10:01:40;;;;;;;;;;;2.90;99.90;;;;;;5063912;28;20012;-53
2023/01/23 10:04:11;;;;;;;;;;;3.00;99.90;;;;;;5058178;28;19927;-52
2023/01/23 10:06:53;;;;;;;;;;;3.00;99.90;;;;;;5075240;28;19927;-54
2023/01/23 10:09:25;;;;;;;;;;;3.10;99.90;;;;;;5073545;28;19947;-53
2023/01/23 10:11:56;;;;;;;;;;;2.90;99.90;;;;;;5070874;28;19959;-53
2023/01/23 10:14:32;;;;;;;;;;;2.80;99.90;;;;;;5071512;28;19952;-53
2023/01/23 10:17:03;;;;;;;;;;;2.80;99.90;;;;;;5070519;28;20329;-52
2023/01/23 10:19:44;;;;;;;;;;;2.90;99.90;;;;;;5057004;28;19970;-53
2023/01/23 10:22:21;;;;;;;;;;;3.00;99.90;;;;;;5026974;28;20006;-49
2023/01/23 10:24:50;;;;;;;;;;;3.10;99.90;;;;;;5063659;28;19928;-51
2023/01/23 10:27:18;;;;;;;;;;;2.90;99.90;;;;;;5071299;28;19928;-52
2023/01/23 10:29:47;;;;;;;;;;;2.80;99.90;;;;;;5069284;28;19925;-50
2023/01/23 10:32:21;;;;;;;;;;;2.80;99.90;;;;;;5066799;28;19974;-53
2023/01/23 10:34:52;;;;;;;;;;;3.00;99.90;;;;;;5063316;28;19929;-52
2023/01/23 10:37:22;;;;;;;;;;;3.20;99.90;;;;;;5072209;28;19920;-47
2023/01/23 10:39:50;;;;;;;;;;;3.50;99.90;;;;;;5067365;28;19920;-50
2023/01/23 10:42:19;;;;;;;;;;;3.80;99.90;;;;;;5066754;28;19921;-53
2023/01/23 10:44:46;;;;;;;;;;;4.00;99.90;;;;;;5059525;28;19928;-50
2023/01/23 10:47:17;;;;;;;;;;;3.70;99.90;;;;;;5067276;28;20011;-51
2023/01/23 10:49:45;;;;;;;;;;;3.70;99.90;;;;;;5071008;28;20000;-53
2023/01/23 10:52:30;;;;;;;;;;;3.80;99.90;;;;;;5065481;28;19929;-52
2023/01/23 10:54:56;;;;;;;;;;;3.80;99.90;;;;;;5089933;28;20515;-52
2023/01/23 10:57:25;;;;;;;;;;;4.00;99.90;;;;;;5066921;28;19959;-52
2023/01/23 10:59:54;;;;;;;;;;;4.10;99.90;;;;;;5067632;28;19920;-53
2023/01/23 11:02:22;;;;;;;;;;;3.90;99.90;;;;;;5066941;28;19968;-51
2023/01/23 11:04:50;;;;;;;;;;;3.80;99.90;;;;;;5069957;28;19924;-51
2023/01/23 11:07:18;;;;;;;;;;;3.60;99.90;;;;;;5057887;28;20498;-52
2023/01/23 11:09:51;;;;;;;;;;;3.60;99.90;;;;;;5058802;28;20012;-51
2023/01/23 11:12:19;;;;;;;;;;;3.80;99.90;;;;;;5074077;28;20007;-54
2023/01/23 11:14:46;;;;;;;;;;;4.20;99.90;;;;;;5068952;28;19984;-50
2023/01/23 11:17:15;;;;;;;;;;;4.20;99.90;;;;;;5068663;28;19997;-50
2023/01/23 11:19:42;;;;;;;;;;;4.20;99.90;;;;;;5067987;28;19959;-51
2023/01/23 11:22:23;;;;;;;;;;;4.00;99.90;;;;;;5073516;28;19921;-49
2023/01/23 11:24:51;;;;;;;;;;;4.00;99.90;;;;;;5069264;28;19924;-52
2023/01/23 11:27:19;;;;;;;;;;;3.90;99.90;;;;;;5066799;28;19925;-49
2023/01/23 11:30:03;;;;;;;;;;;4.00;99.90;;;;;;5071500;28;19928;-47
2023/01/23 11:32:33;;;;;;;;;;;4.20;99.90;;;;;;5068904;28;19999;-51
2023/01/23 11:35:05;;;;;;;;;;;4.40;99.90;;;;;;5062942;28;19994;-49
2023/01/23 11:37:35;;;;;;;;;;;4.40;99.90;;;;;;5068711;28;19999;-50
2023/01/23 11:40:07;;;;;;;;;;;4.50;99.90;;;;;;5068592;28;19920;-51
2023/01/23 11:42:35;;;;;;;;;;;4.60;99.90;;;;;;5068740;28;19920;-51
2023/01/23 11:45:02;;;;;;;;;;;4.70;99.90;;;;;;5066693;28;20208;-51
2023/01/23 11:47:46;;;;;;;;;;;4.70;99.90;;;;;;5064722;28;20722;-46
2023/01/23 11:50:26;;;;;;;;;;;4.60;99.90;;;;;;5072009;28;20016;-53
2023/01/23 11:52:57;;;;;;;;;;;4.60;99.90;;;;;;5070931;28;20019;-52
2023/01/23 11:55:38;;;;;;;;;;;4.60;99.90;;;;;;5064872;28;19927;-52
2023/01/23 11:58:13;;;;;;;;;;;4.60;99.90;;;;;;5066609;28;19935;-51
2023/01/23 12:00:43;;;;;;;;;;;4.60;99.90;;;;;;5072575;28;19978;-53
2023/01/23 12:03:32;;;;;;;;;;;4.70;99.90;;;;;;5061868;28;19924;-47
2023/01/23 12:06:27;;;;;;;;;;;4.40;99.90;;;;;;5056384;28;20403;-49
2023/01/23 12:08:57;;;;;;;;;;;4.20;99.90;;;;;;5059997;28;19947;-50
2023/01/23 12:11:30;;;;;;;;;;;4.30;99.90;;;;;;5068630;28;19952;-55
2023/01/23 12:14:03;;;;;;;;;;;4.50;99.90;;;;;;5058883;28;19920;-51
2023/01/23 12:16:39;;;;;;;;;;;4.70;99.90;;;;;;5071339;28;19986;-49
2023/01/23 12:19:13;;;;;;;;;;;4.60;99.90;;;;;;5060497;28;20011;-48
2023/01/23 12:21:44;;;;;;;;;;;4.50;99.90;;;;;;5065213;28;20354;-51
2023/01/23 12:24:15;;;;;;;;;;;4.70;99.90;;;;;;5062841;28;19921;-50
2023/01/23 12:26:50;;;;;;;;;;;4.60;99.90;;;;;;5065903;28;19920;-52
2023/01/23 12:29:28;;;;;;;;;;;4.40;99.90;;;;;;5057503;28;19928;-49
2023/01/23 12:32:01;;;;;;;;;;;4.20;99.90;;;;;;5063502;28;20231;-48
2023/01/23 12:34:35;;;;;;;;;;;3.90;99.90;;;;;;5061216;28;19920;-49
2023/01/23 12:37:10;;;;;;;;;;;3.90;99.90;;;;;;5072801;28;20139;-47
2023/01/23 12:39:45;;;;;;;;;;;4.10;99.90;;;;;;5060883;28;20286;-52
2023/01/23 12:42:16;;;;;;;;;;;4.10;99.90;;;;;;5060231;28;19959;-50
2023/01/23 12:44:45;;;;;;;;;;;4.00;99.90;;;;;;5067564;28;19920;-52
2023/01/23 12:47:14;;;;;;;;;;;3.90;99.90;;;;;;5062920;28;20002;-50
2023/01/23 12:49:43;;;;;;;;;;;3.80;99.90;;;;;;5059142;28;19929;-51
2023/01/23 12:52:13;;;;;;;;;;;3.70;99.90;;;;;;5058763;28;20367;-51
2023/01/23 12:54:42;;;;;;;;;;;3.70;99.90;;;;;;5060408;28;19960;-51
2023/01/23 12:57:11;;;;;;;;;;;3.70;99.90;;;;;;5061760;28;20011;-50
2023/01/23 12:59:48;;;;;;;;;;;3.80;99.90;;;;;;5060788;28;20214;-51
2023/01/23 13:02:20;;;;;;;;;;;3.80;99.90;;;;;;5062397;28;20356;-50
2023/01/23 13:04:53;;;;;;;;;;;3.70;99.90;;;;;;5067093;28;20011;-50
2023/01/23 13:07:34;;;;;;;;;;;3.60;99.90;;;;;;5067316;28;20019;-53
2023/01/23 13:10:22;;;;;;;;;;;3.70;99.90;;;;;;5066158;28;20079;-48
2023/01/23 13:12:49;;;;;;;;;;;3.80;99.90;;;;;;5062630;28;19924;-49
2023/01/23 13:15:32;;;;;;;;;;;3.70;99.90;;;;;;5057991;28;20015;-50
2023/01/23 13:18:00;;;;;;;;;;;3.70;99.90;;;;;;5068627;28;20007;-54
2023/01/23 13:23:29;;;;;;;;;;;3.80;99.90;;;;;;5060463;28;19927;-51
2023/01/23 13:26:12;;;;;;;;;;;3.90;99.90;;;;;;5059205;28;19920;-54
2023/01/23 13:28:40;;;;;;;;;;;4.00;99.90;;;;;;5063156;28;19986;-52
2023/01/23 13:31:23;;;;;;;;;;;3.80;99.90;;;;;;5069576;28;20320;-51
2023/01/23 13:33:51;;;;;;;;;;;3.90;99.90;;;;;;5067697;28;19952;-52
2023/01/23 13:36:31;;;;;;;;;;;3.80;99.90;;;;;;5057445;28;19927;-48
2023/01/23 13:39:16;;;;;;;;;;;3.90;99.90;;;;;;5059837;28;20352;-56
2023/01/23 13:41:43;;;;;;;;;;;3.90;99.90;;;;;;5049162;28;20019;-54
2023/01/23 13:44:16;;;;;;;;;;;3.90;99.90;;;;;;5053748;28;20011;-54
2023/01/23 13:46:57;;;;;;;;;;;3.90;99.90;;;;;;5052984;28;19920;-52
2023/01/23 13:57:41;;;;;;;;;;;3.90;99.90;;;;;;5064772;28;20355;-52
2023/01/23 14:00:13;;;;;;;;;;;3.80;99.90;;;;;;5063942;28;20397;-54
2023/01/23 14:05:29;;;;;;;;;;;4.00;99.90;;;;;;5052269;28;19928;-51
2023/01/23 14:08:00;;;;;;;;;;;3.90;99.90;;;;;;5054481;28;19971;-52
2023/01/23 14:10:28;;;;;;;;;;;3.80;99.90;;;;;;5055881;28;20198;-53
2023/01/23 14:13:03;;;;;;;;;;;3.80;99.90;;;;;;5066263;28;19963;-49
2023/01/23 14:18:24;;;;;;;;;;;3.80;99.90;;;;;;5053661;28;20366;-51
2023/01/23 14:20:51;;;;;;;;;;;3.80;99.90;;;;;;5054114;28;19927;-52
2023/01/23 14:23:29;;;;;;;;;;;3.60;99.90;;;;;;5064288;28;20541;-49
2023/01/23 14:25:57;;;;;;;;;;;3.60;99.90;;;;;;5070258;28;20003;-50
2023/01/23 14:28:24;;;;;;;;;;;3.70;99.90;;;;;;5060030;28;19967;-52
2023/01/23 14:30:58;;;;;;;;;;;3.70;99.90;;;;;;5069520;28;20053;-52
2023/01/23 14:33:27;;;;;;;;;;;3.70;99.90;;;;;;5074653;28;19966;-54
2023/01/23 14:35:56;;;;;;;;;;;3.80;99.90;;;;;;5072739;28;20002;-53
2023/01/23 14:38:26;;;;;;;;;;;3.90;99.90;;;;;;5068321;28;20011;-50
2023/01/23 14:40:53;;;;;;;;;;;3.80;99.90;;;;;;5055265;28;19920;-53
2023/01/23 14:43:21;;;;;;;;;;;3.80;99.90;;;;;;5051770;28;20372;-53
2023/01/23 14:45:50;;;;;;;;;;;3.80;99.90;;;;;;5052614;28;19971;-51
2023/01/23 14:48:18;;;;;;;;;;;3.70;99.90;;;;;;5054781;28;20315;-51
2023/01/23 14:50:46;;;;;;;;;;;3.80;99.90;;;;;;5052970;28;19931;-52
2023/01/23 14:53:14;;;;;;;;;;;3.70;99.90;;;;;;5050138;28;19960;-52
2023/01/23 14:55:41;;;;;;;;;;;3.70;99.90;;;;;;5066360;28;20007;-49
2023/01/23 14:58:13;;;;;;;;;;;3.50;99.90;;;;;;5068925;28;19959;-49
2023/01/23 15:00:42;;;;;;;;;;;3.40;99.90;;;;;;5070713;28;19974;-50
2023/01/23 15:03:12;;;;;;;;;;;3.40;99.90;;;;;;5070438;28;19978;-51
2023/01/23 15:05:40;;;;;;;;;;;3.40;99.90;;;;;;5070749;28;19927;-49
2023/01/23 15:08:19;;;;;;;;;;;3.60;99.90;;;;;;5070414;28;19920;-54